Watton, Michigan
Current Conditions -  °F | °C
As of 12:15 PM on Friday 19 Dec 2014 (Local Time) from KLNL Reporting Station
Overcast Overcast  
Wind Chill: 17°   Ceiling: 1000
Heat Index: 17°   Visibility: 7mi
Dew Point: 15°   Wind: 0mph
Humidity: 93%   Direction: NA
Pressure: 30.23"   Gusts: NA
Location:  46.54°N, 88.61°W
Report Text: KLNL 191715Z AUTO 00000KT 7SM OVC010 M08/M09 A3023 RMK AO2 T10841094
Loading
Personal Weather Stations






























Interactive Weather Map New forecast layout! Learn more

10-Day Weather Forecast

Advertisements
Track Severe Weather on mobile